Hauptseite
METAR-TAF:

METAR-TAF

Flughäfen :

Flughafen Saipan

Saipan, Marianen, Vereinigte Staaten

Breite: 15-07N, Länge: 145-44E, Höhe: 66 m

Beobachtung

Neuester Wetterbericht von vor 41 Minuten, um 03:54 UTC
Wind 9 kt aus Ost/Südost
Temperatur 29°C
Luftfeuchtigkeit 66%
Luftdruck 1012 hPa
Sichtweite: 16.1 km
Aufgelockert bewölkt in der Höhe von 2700 ft
Durchbrochene Bewölkung in der Höhe von 5000 ft

METAR: PGSN 020354Z 12009KT 10SM SCT027 BKN050 29/22 A2989 RMK AO2 SLP144 T02940217

Zeit: 14:35 (04:35 UTC)

Prognose

Neuester Wetterbericht von vor 4 Stunden und 56 Minuten, um 23:39 UTC
Gültige Prognose vom 02 um 00 UTC bis 02 um 24 UTC
Wind 14 kt aus Ost
Sichtweite: 10 km
Aufgelockert bewölkt in der Höhe von 2000 ft
Schauer in der Nähe,

TAF: PGSN 012339Z 0200/0224 09014KT P6SM VCSH SCT020

Wetterbeobachtungen und Prognosen von mehr als 4000 Flughäfen (METAR und TAF Bericht).

Die verfügbaren Stationen werden durch gelbe und rote Markierungen auf der Karte dargestellt.

Führen Sie die Maus auf sie, um den Namen der Station zu sehen.

Darauf klicken, um die Beobachtung von Wetterbeobachtungen und Prognosen zu sehen.

Um die Karte zu ändern : klicken Sie auf den grünen Tasten mit einem schwarzen Kreuz Zum Vergrößern, auf den grünen Button mit einem Gedankenstrich zu verkleinern, oder auf die grünen Pfeile für benachbarte Karten.


METAR-TAF: